Time;durP1;ratioP1;P1;durP2;ratioP2;P2;SDS_P1;SDS_P2;PMS_P1;PMS_P2;Temp;Humidity;BMP_temperature;BMP_pressure;BME280_temperature;BME280_humidity;BME280_pressure;Samples;Min_cycle;Max_cycle;Signal;HPM_P1;HPM_P2
2021/04/30 00:01:41;;;;;;;1999.90;999.90;;;8.60;99.90;;;;;;5065869;28;20452;-87
2021/04/30 00:04:07;;;;;;;1999.90;999.90;;;8.70;99.90;;;;;;5062323;28;20475;-88
2021/04/30 00:06:34;;;;;;;1999.90;999.90;;;8.70;99.90;;;;;;5076797;28;20474;-87
2021/04/30 00:09:01;;;;;;;1999.90;999.90;;;8.70;99.90;;;;;;5075611;28;21039;-87
2021/04/30 00:11:28;;;;;;;1999.90;999.90;;;8.70;99.90;;;;;;5078902;28;20478;-86
2021/04/30 00:13:54;;;;;;;1999.90;999.90;;;8.60;99.90;;;;;;5075192;28;20515;-87
2021/04/30 00:16:20;;;;;;;1999.90;999.90;;;8.80;99.90;;;;;;5064397;28;20490;-86
2021/04/30 00:18:47;;;;;;;1999.90;999.90;;;8.70;99.90;;;;;;5073826;28;20990;-86
2021/04/30 00:21:13;;;;;;;1999.90;999.90;;;8.70;99.90;;;;;;5073497;28;20565;-85
2021/04/30 00:23:39;;;;;;;1999.90;999.90;;;8.70;99.90;;;;;;5059492;28;20551;-87
2021/04/30 00:26:07;;;;;;;1999.90;999.90;;;8.60;99.90;;;;;;5073740;28;20536;-86
2021/04/30 00:28:34;;;;;;;1999.90;999.90;;;8.60;99.90;;;;;;5073519;28;20554;-86
2021/04/30 00:31:02;;;;;;;1999.90;999.90;;;8.70;99.90;;;;;;5067786;28;20534;-87
2021/04/30 00:33:28;;;;;;;1999.90;999.90;;;8.70;99.90;;;;;;5067415;28;20518;-86
2021/04/30 00:35:56;;;;;;;1999.90;999.90;;;8.70;99.90;;;;;;5073271;28;21035;-85
2021/04/30 00:38:22;;;;;;;1999.90;999.90;;;8.70;99.90;;;;;;5073205;28;20459;-87
2021/04/30 00:40:49;;;;;;;1999.90;999.90;;;8.70;99.90;;;;;;5070787;28;20537;-86
2021/04/30 00:43:17;;;;;;;1999.90;999.90;;;8.70;99.90;;;;;;5064647;28;20909;-86
2021/04/30 00:45:43;;;;;;;1999.90;999.90;;;8.70;99.90;;;;;;5072894;28;20475;-87
2021/04/30 00:48:11;;;;;;;1999.90;999.90;;;8.70;99.90;;;;;;5073516;28;20478;-86
2021/04/30 00:50:38;;;;;;;1999.90;999.90;;;8.70;99.90;;;;;;5053346;28;20460;-87
2021/04/30 00:53:04;;;;;;;1999.90;999.90;;;8.70;99.90;;;;;;5055467;28;20574;-85
2021/04/30 00:55:31;;;;;;;1999.90;999.90;;;8.60;99.90;;;;;;5069345;28;20475;-87
2021/04/30 00:57:59;;;;;;;1999.90;999.90;;;8.60;99.90;;;;;;5054456;28;20460;-87
2021/04/30 01:00:28;;;;;;;1999.90;999.90;;;8.70;99.90;;;;;;5072343;28;20895;-86
2021/04/30 01:02:55;;;;;;;1999.90;999.90;;;8.80;99.90;;;;;;5076675;28;20550;-87
2021/04/30 01:05:23;;;;;;;1999.90;999.90;;;8.80;99.90;;;;;;5076386;28;21047;-88
2021/04/30 01:07:50;;;;;;;1999.90;999.90;;;8.80;99.90;;;;;;5078711;28;20493;-87
2021/04/30 01:10:17;;;;;;;663.93;623.03;;;8.80;99.90;;;;;;5081250;28;20454;-86
2021/04/30 01:12:44;;;;;;;938.23;585.43;;;8.80;99.90;;;;;;5067274;28;20511;-87
2021/04/30 01:15:14;;;;;;;1999.90;999.90;;;8.70;99.90;;;;;;5058118;28;20463;-87
2021/04/30 01:17:41;;;;;;;1999.90;999.90;;;8.70;99.90;;;;;;5058428;28;21071;-87
2021/04/30 01:20:09;;;;;;;533.33;497.13;;;8.60;99.90;;;;;;5059234;28;20448;-87
2021/04/30 01:22:38;;;;;;;1049.97;692.30;;;8.50;99.90;;;;;;5059495;28;20571;-87
2021/04/30 01:25:06;;;;;;;1999.90;999.90;;;8.50;99.90;;;;;;5062654;28;20526;-85
2021/04/30 01:27:32;;;;;;;646.63;605.60;;;8.60;99.90;;;;;;5083444;28;20479;-86
2021/04/30 01:29:59;;;;;;;1068.87;710.97;;;8.60;99.90;;;;;;5076964;28;20492;-87
2021/04/30 01:32:26;;;;;;;597.30;558.53;;;8.60;99.90;;;;;;5059921;28;21173;-86
2021/04/30 01:34:52;;;;;;;648.43;604.90;;;8.60;99.90;;;;;;5060628;28;20456;-85
2021/04/30 01:37:19;;;;;;;666.23;625.60;;;8.40;99.90;;;;;;5064272;28;20475;-85
2021/04/30 01:39:47;;;;;;;598.77;557.20;;;8.40;99.90;;;;;;5060694;28;20431;-88
2021/04/30 01:42:13;;;;;;;480.93;449.73;;;8.40;99.90;;;;;;5077455;28;20483;-86
2021/04/30 01:44:39;;;;;;;508.13;476.47;;;8.40;99.90;;;;;;5078116;28;20474;-86
2021/04/30 01:47:06;;;;;;;515.77;482.90;;;8.30;99.90;;;;;;5079260;28;20527;-86
2021/04/30 01:49:32;;;;;;;467.43;438.93;;;8.30;99.90;;;;;;5061059;28;20905;-86
2021/04/30 01:51:59;;;;;;;355.77;332.03;;;8.20;99.90;;;;;;5066147;28;20939;-86
2021/04/30 01:54:25;;;;;;;295.97;275.53;;;8.00;99.90;;;;;;5078510;28;20963;-86
2021/04/30 01:56:53;;;;;;;242.13;222.47;;;8.00;99.90;;;;;;5078214;28;20523;-86
2021/04/30 01:59:19;;;;;;;172.97;156.50;;;8.00;99.90;;;;;;5079029;28;21025;-86
2021/04/30 02:01:46;;;;;;;269.93;250.43;;;7.90;99.90;;;;;;5078714;28;21036;-86
2021/04/30 02:04:12;;;;;;;111.67;91.80;;;7.90;99.90;;;;;;5078632;28;20879;-85
2021/04/30 02:06:39;;;;;;;136.60;122.67;;;8.00;99.90;;;;;;5078670;28;20534;-86
2021/04/30 02:09:08;;;;;;;169.77;154.73;;;8.10;99.90;;;;;;5060650;28;20470;-85
2021/04/30 02:11:34;;;;;;;139.33;121.83;;;8.10;99.90;;;;;;5062453;28;20508;-85
2021/04/30 02:14:03;;;;;;;235.87;218.20;;;8.20;99.90;;;;;;5078089;28;20487;-86
2021/04/30 02:16:30;;;;;;;143.77;129.47;;;8.20;99.90;;;;;;5078996;28;20462;-86
2021/04/30 02:18:57;;;;;;;157.33;141.90;;;8.10;99.90;;;;;;5078561;28;20435;-85
2021/04/30 02:21:23;;;;;;;100.83;42.87;;;8.10;99.90;;;;;;5064741;28;20460;-86
2021/04/30 02:23:50;;;;;;;105.97;58.60;;;8.10;99.90;;;;;;5078035;28;20501;-84
2021/04/30 02:26:16;;;;;;;119.90;84.33;;;8.10;99.90;;;;;;5077861;28;20505;-85
2021/04/30 02:28:45;;;;;;;162.47;147.40;;;8.30;99.90;;;;;;5075435;28;20830;-84
2021/04/30 02:31:13;;;;;;;142.30;128.10;;;8.30;99.90;;;;;;5058173;28;20455;-83
2021/04/30 02:33:40;;;;;;;114.87;92.97;;;8.20;99.90;;;;;;5078080;28;20483;-84
2021/04/30 02:36:07;;;;;;;167.00;152.03;;;8.20;99.90;;;;;;5077298;28;20482;-84
2021/04/30 02:38:34;;;;;;;98.60;40.30;;;8.30;99.90;;;;;;5076633;28;20526;-85
2021/04/30 02:41:01;;;;;;;242.60;224.43;;;8.30;99.90;;;;;;5057364;28;20452;-85
2021/04/30 02:43:27;;;;;;;91.27;26.53;;;8.30;99.90;;;;;;5073950;28;20459;-84
2021/04/30 02:45:54;;;;;;;91.77;38.27;;;8.30;99.90;;;;;;5077010;28;20446;-85
2021/04/30 02:48:29;;;;;;;98.33;51.87;;;8.30;99.90;;;;;;5077075;28;20496;-87
2021/04/30 02:50:56;;;;;;;111.83;86.37;;;8.30;99.90;;;;;;5063317;28;20460;-85
2021/04/30 02:53:24;;;;;;;106.80;78.43;;;8.30;99.90;;;;;;5057404;28;20527;-85
2021/04/30 02:55:50;;;;;;;150.53;135.93;;;8.30;99.90;;;;;;5057688;28;20478;-85
2021/04/30 02:58:17;;;;;;;125.97;108.43;;;8.30;99.90;;;;;;5056903;28;20455;-85
2021/04/30 03:00:43;;;;;;;316.50;293.70;;;8.40;99.90;;;;;;5059377;28;20531;-86
2021/04/30 03:03:09;;;;;;;157.67;143.00;;;8.30;99.90;;;;;;5058068;28;20499;-85
2021/04/30 03:05:37;;;;;;;153.40;138.73;;;8.30;99.90;;;;;;5069200;28;20489;-86
2021/04/30 03:08:03;;;;;;;130.77;108.43;;;8.40;99.90;;;;;;5078912;28;20565;-85
2021/04/30 03:10:30;;;;;;;177.33;160.73;;;8.30;99.90;;;;;;5079207;28;20482;-85
2021/04/30 03:12:56;;;;;;;109.17;77.77;;;8.20;99.90;;;;;;5079349;28;20570;-85
2021/04/30 03:15:23;;;;;;;128.23;87.07;;;8.30;99.90;;;;;;5073489;28;20547;-85
2021/04/30 03:17:49;;;;;;;112.23;66.27;;;8.30;99.90;;;;;;5063741;28;20533;-85
2021/04/30 03:20:17;;;;;;;123.23;78.17;;;8.40;99.90;;;;;;5061427;28;20490;-84
2021/04/30 03:22:45;;;;;;;102.37;41.70;;;8.30;99.90;;;;;;5063468;28;20521;-85
2021/04/30 03:25:13;;;;;;;105.87;54.03;;;8.40;99.90;;;;;;5086423;28;20495;-86
2021/04/30 03:27:39;;;;;;;125.17;96.90;;;8.50;99.90;;;;;;5093874;28;20463;-88
2021/04/30 03:30:08;;;;;;;107.63;49.43;;;8.40;99.90;;;;;;5077877;28;20447;-86
2021/04/30 03:32:35;;;;;;;115.83;82.00;;;8.40;99.90;;;;;;5077412;28;20491;-87
2021/04/30 03:35:02;;;;;;;108.13;45.87;;;8.40;99.90;;;;;;5077458;28;20432;-87
2021/04/30 03:37:28;;;;;;;106.50;54.43;;;8.40;99.90;;;;;;5077460;28;20491;-86
2021/04/30 03:39:56;;;;;;;109.23;56.80;;;8.40;99.90;;;;;;5077443;28;20451;-87
2021/04/30 03:42:22;;;;;;;116.40;62.93;;;8.40;99.90;;;;;;5094378;28;20478;-87
2021/04/30 03:44:49;;;;;;;123.97;89.10;;;8.30;99.90;;;;;;5092135;28;20464;-87
2021/04/30 03:47:15;;;;;;;140.97;119.93;;;8.30;99.90;;;;;;5072163;28;20497;-86
2021/04/30 03:49:41;;;;;;;110.00;56.87;;;8.40;99.90;;;;;;5074104;28;20490;-86
2021/04/30 03:52:08;;;;;;;125.57;79.43;;;8.40;99.90;;;;;;5061609;28;20464;-85
2021/04/30 03:54:34;;;;;;;99.40;38.60;;;8.30;99.90;;;;;;5060824;28;20515;-86
2021/04/30 03:57:02;;;;;;;99.10;37.77;;;8.30;99.90;;;;;;5062487;28;20437;-86
2021/04/30 03:59:28;;;;;;;112.00;71.77;;;8.20;99.90;;;;;;5062094;28;20490;-86
2021/04/30 04:01:54;;;;;;;114.70;69.00;;;8.30;99.90;;;;;;5062085;28;20507;-85
2021/04/30 04:04:21;;;;;;;114.40;60.73;;;8.40;99.90;;;;;;5073212;28;20447;-86
2021/04/30 04:06:47;;;;;;;108.17;45.43;;;8.30;99.90;;;;;;5062915;28;20486;-84
2021/04/30 04:09:14;;;;;;;115.80;50.67;;;8.30;99.90;;;;;;5079593;28;20479;-87
2021/04/30 04:11:41;;;;;;;113.37;48.57;;;8.30;99.90;;;;;;5081133;28;20894;-86
2021/04/30 04:14:08;;;;;;;129.60;110.20;;;8.30;99.90;;;;;;5068523;28;20565;-86
2021/04/30 04:16:34;;;;;;;101.97;27.43;;;8.20;99.90;;;;;;5060245;28;20523;-88
2021/04/30 04:19:01;;;;;;;106.03;29.67;;;8.20;99.90;;;;;;5068530;28;20455;-87
2021/04/30 04:21:27;;;;;;;130.53;90.80;;;8.20;99.90;;;;;;5058977;28;20464;-86
2021/04/30 04:23:54;;;;;;;96.90;30.83;;;8.20;99.90;;;;;;5058541;28;20468;-85
2021/04/30 04:26:20;;;;;;;82.27;25.63;;;8.20;99.90;;;;;;5059372;28;20511;-85
2021/04/30 04:28:46;;;;;;;82.67;24.80;;;8.20;99.90;;;;;;5077081;28;20455;-85
2021/04/30 04:31:14;;;;;;;94.70;30.20;;;8.00;99.90;;;;;;5059801;28;20880;-86
2021/04/30 04:33:40;;;;;;;85.50;28.40;;;8.00;99.90;;;;;;5093788;22;20527;-82
2021/04/30 04:36:07;;;;;;;96.60;28.27;;;8.00;99.90;;;;;;5095882;28;20541;-82
2021/04/30 04:38:33;;;;;;;94.80;40.10;;;8.00;99.90;;;;;;5098917;28;20872;-82
2021/04/30 04:41:00;;;;;;;88.70;29.20;;;7.80;99.90;;;;;;5099293;28;20489;-82
2021/04/30 04:43:26;;;;;;;93.00;32.13;;;7.80;99.90;;;;;;5090860;28;20581;-83
2021/04/30 04:45:53;;;;;;;86.07;23.07;;;7.80;99.90;;;;;;5080535;28;20450;-83
2021/04/30 04:48:20;;;;;;;103.80;34.13;;;7.80;99.90;;;;;;5080339;28;20531;-83
2021/04/30 04:50:46;;;;;;;98.87;25.33;;;7.80;99.90;;;;;;5080542;28;20461;-83
2021/04/30 04:53:13;;;;;;;93.53;31.37;;;7.80;99.90;;;;;;5079612;28;20486;-83
2021/04/30 04:55:39;;;;;;;89.60;27.07;;;7.90;99.90;;;;;;5079857;28;20451;-83
2021/04/30 04:58:05;;;;;;;81.93;24.17;;;8.00;99.90;;;;;;5081450;28;21006;-83
2021/04/30 05:00:33;;;;;;;91.43;27.53;;;8.00;99.90;;;;;;5077176;28;20881;-82
2021/04/30 05:02:59;;;;;;;85.27;22.53;;;8.00;99.90;;;;;;5075625;28;20467;-82
2021/04/30 05:05:27;;;;;;;86.70;23.57;;;8.10;99.90;;;;;;5075762;28;20827;-83
2021/04/30 05:07:54;;;;;;;88.03;25.47;;;8.20;99.90;;;;;;5075958;28;20451;-82
2021/04/30 05:10:21;;;;;;;92.03;27.23;;;8.20;99.90;;;;;;5076702;28;20451;-82
2021/04/30 05:12:48;;;;;;;98.00;30.70;;;8.20;99.90;;;;;;5077033;28;20493;-81
2021/04/30 05:15:15;;;;;;;97.53;29.40;;;8.20;99.90;;;;;;5076522;28;20455;-82
2021/04/30 05:17:43;;;;;;;108.97;43.03;;;8.20;99.90;;;;;;5077171;28;20507;-82
2021/04/30 05:20:11;;;;;;;109.20;28.20;;;8.30;99.90;;;;;;5059442;28;20448;-83
2021/04/30 05:22:40;;;;;;;102.10;31.77;;;8.20;99.90;;;;;;5059433;28;21027;-83
2021/04/30 05:25:08;;;;;;;132.30;99.27;;;8.30;99.90;;;;;;5076711;28;20458;-80
2021/04/30 05:27:35;;;;;;;99.43;28.77;;;8.20;99.90;;;;;;5077159;28;20535;-81
2021/04/30 05:30:01;;;;;;;112.63;42.93;;;8.10;99.90;;;;;;5077319;28;21072;-80
2021/04/30 05:32:27;;;;;;;88.20;23.20;;;8.10;99.90;;;;;;5075344;28;20534;-80
2021/04/30 05:34:55;;;;;;;111.77;44.57;;;8.20;99.90;;;;;;5076542;28;20556;-85
2021/04/30 05:37:22;;;;;;;178.67;162.13;;;8.70;99.90;;;;;;5076160;28;20447;-84
2021/04/30 05:39:49;;;;;;;118.20;49.23;;;9.30;99.90;;;;;;5077376;28;20538;-88
2021/04/30 05:42:16;;;;;;;113.20;35.83;;;9.40;99.90;;;;;;5080351;28;20482;-87
2021/04/30 05:44:42;;;;;;;120.37;77.03;;;9.20;99.90;;;;;;5075186;28;20482;-90
2021/04/30 05:47:08;;;;;;;116.43;57.73;;;9.10;99.90;;;;;;5076148;28;20447;-88
2021/04/30 05:49:37;;;;;;;105.23;30.50;;;9.10;99.90;;;;;;5075995;28;20550;-89
2021/04/30 05:52:04;;;;;;;108.43;39.80;;;9.00;99.90;;;;;;5065955;28;20483;-88
2021/04/30 05:54:31;;;;;;;115.10;51.43;;;8.90;99.90;;;;;;5075818;28;21006;-88
2021/04/30 05:56:58;;;;;;;245.37;225.87;;;8.70;99.90;;;;;;5056419;28;20515;-89
2021/04/30 05:59:25;;;;;;;140.50;91.40;;;8.70;99.90;;;;;;5063678;28;20902;-88
2021/04/30 06:01:51;;;;;;;111.40;32.03;;;8.50;99.90;;;;;;5077126;28;20490;-87
2021/04/30 06:04:18;;;;;;;132.27;75.83;;;8.70;99.90;;;;;;5055973;28;20476;-87
2021/04/30 06:06:49;;;;;;;107.60;34.70;;;8.60;99.90;;;;;;5078365;28;20462;-88
2021/04/30 06:09:16;;;;;;;115.07;35.47;;;8.70;99.90;;;;;;5077123;28;20518;-87
2021/04/30 06:11:43;;;;;;;120.60;60.80;;;8.60;99.90;;;;;;5076786;28;20458;-88
2021/04/30 06:14:11;;;;;;;138.23;95.97;;;8.60;99.90;;;;;;5076689;28;20489;-87
2021/04/30 06:16:38;;;;;;;171.23;151.83;;;8.50;99.90;;;;;;5077369;28;20504;-88
2021/04/30 06:19:05;;;;;;;111.73;40.73;;;8.50;99.90;;;;;;5077599;28;20946;-87
2021/04/30 06:21:31;;;;;;;121.00;35.90;;;8.50;99.90;;;;;;5077920;28;20447;-88
2021/04/30 06:23:59;;;;;;;155.83;138.77;;;8.50;99.90;;;;;;5085591;28;20547;-89
2021/04/30 06:26:26;;;;;;;118.83;43.00;;;8.60;99.90;;;;;;5079383;28;20470;-89
2021/04/30 06:28:52;;;;;;;132.67;78.90;;;8.50;99.90;;;;;;5077005;28;20479;-88
2021/04/30 06:31:20;;;;;;;131.20;58.07;;;8.50;99.90;;;;;;5077775;28;20479;-89
2021/04/30 06:33:46;;;;;;;114.47;34.10;;;8.60;99.90;;;;;;5078968;28;20529;-89
2021/04/30 06:36:13;;;;;;;122.27;45.97;;;8.80;99.90;;;;;;5093371;28;20427;-89
2021/04/30 06:38:39;;;;;;;128.20;60.33;;;8.70;99.90;;;;;;5066258;28;20444;-90
2021/04/30 06:41:06;;;;;;;114.43;36.63;;;8.80;99.90;;;;;;5057689;28;20963;-89
2021/04/30 06:43:32;;;;;;;150.83;95.30;;;8.80;99.90;;;;;;5065671;28;20467;-89
2021/04/30 06:45:59;;;;;;;123.40;42.83;;;8.60;99.90;;;;;;5078301;28;20432;-89
2021/04/30 06:48:27;;;;;;;146.27;72.90;;;8.60;99.90;;;;;;5078792;28;20934;-89
2021/04/30 06:50:53;;;;;;;132.43;44.30;;;8.50;99.90;;;;;;5077485;28;20459;-88
2021/04/30 06:53:20;;;;;;;120.77;38.23;;;8.60;99.90;;;;;;5093168;28;20565;-90
2021/04/30 06:55:46;;;;;;;133.33;43.73;;;8.70;99.90;;;;;;5098977;28;20469;-90
2021/04/30 06:58:13;;;;;;;117.83;37.97;;;8.70;99.90;;;;;;5098713;28;20435;-88
2021/04/30 07:00:40;;;;;;;123.00;43.93;;;8.90;99.90;;;;;;5086589;28;20959;-88
2021/04/30 07:03:07;;;;;;;124.70;39.83;;;8.90;99.90;;;;;;5076257;28;20471;-88
2021/04/30 07:05:35;;;;;;;121.97;49.80;;;8.90;99.90;;;;;;5076400;28;20443;-88
2021/04/30 07:08:03;;;;;;;149.30;96.00;;;8.90;99.90;;;;;;5077605;28;20462;-89
2021/04/30 07:10:30;;;;;;;130.80;41.53;;;8.80;99.90;;;;;;5082544;28;20515;-88
2021/04/30 07:12:57;;;;;;;134.37;57.50;;;8.90;99.90;;;;;;5091205;28;20486;-87
2021/04/30 07:15:24;;;;;;;132.13;53.63;;;8.30;99.90;;;;;;5096199;28;20447;-87
2021/04/30 07:17:51;;;;;;;147.33;85.53;;;8.50;99.90;;;;;;5092712;28;20439;-88
2021/04/30 07:20:18;;;;;;;115.70;37.80;;;8.60;99.90;;;;;;5094300;28;20444;-86
2021/04/30 07:22:45;;;;;;;147.47;79.97;;;8.70;99.90;;;;;;5090244;28;20517;-86
2021/04/30 07:25:12;;;;;;;157.07;93.63;;;8.70;99.90;;;;;;5080021;28;20450;-86
2021/04/30 07:27:38;;;;;;;124.30;49.40;;;8.70;99.90;;;;;;5079343;28;20451;-86
2021/04/30 07:30:06;;;;;;;128.83;39.17;;;8.70;99.90;;;;;;5077153;28;20458;-85
2021/04/30 07:32:32;;;;;;;124.40;49.97;;;8.60;99.90;;;;;;5077523;28;20455;-85
2021/04/30 07:37:43;;;;;;;130.70;62.67;;;8.60;99.90;;;;;;5036846;28;20479;-85
2021/04/30 07:40:12;;;;;;;139.33;97.30;;;8.60;99.90;;;;;;5077461;28;20447;-86
2021/04/30 07:42:38;;;;;;;121.73;41.90;;;8.70;99.90;;;;;;5076416;28;20467;-87
2021/04/30 07:45:24;;;;;;;116.50;35.17;;;8.70;99.90;;;;;;5077461;28;20524;-86
2021/04/30 07:47:51;;;;;;;129.60;48.43;;;8.80;99.90;;;;;;5080637;28;20964;-87
2021/04/30 07:50:20;;;;;;;124.90;36.67;;;8.70;99.90;;;;;;5077852;28;20450;-88
2021/04/30 07:55:41;;;;;;;112.07;34.73;;;8.80;99.90;;;;;;5080077;28;20978;-87
2021/04/30 07:58:10;;;;;;;121.37;37.67;;;9.00;99.90;;;;;;5078343;28;20451;-88
2021/04/30 08:00:44;;;;;;;123.07;41.60;;;8.90;99.90;;;;;;5077966;28;20431;-90
2021/04/30 08:05:55;;;;;;;111.10;39.67;;;9.10;99.90;;;;;;5078781;28;20499;-88
2021/04/30 08:08:22;;;;;;;120.73;37.90;;;9.10;99.90;;;;;;5078478;28;20475;-88
2021/04/30 08:10:53;;;;;;;113.03;37.13;;;9.10;99.90;;;;;;5081632;28;20439;-87
2021/04/30 08:13:19;;;;;;;118.07;41.23;;;9.20;99.90;;;;;;5081320;28;20479;-90
2021/04/30 08:15:47;;;;;;;126.23;40.43;;;9.20;99.90;;;;;;5081959;28;20465;-88
2021/04/30 08:18:13;;;;;;;119.97;38.13;;;9.20;99.90;;;;;;5081412;28;20978;-89
2021/04/30 08:20:40;;;;;;;119.27;36.17;;;9.30;99.90;;;;;;5083325;28;20455;-89
2021/04/30 08:23:07;;;;;;;160.07;72.53;;;9.00;99.90;;;;;;5081300;28;20557;-88
2021/04/30 08:25:33;;;;;;;160.50;138.07;;;9.10;99.90;;;;;;5082507;28;20834;-89
2021/04/30 08:28:01;;;;;;;115.33;37.63;;;8.90;99.90;;;;;;5085903;28;20439;-88
2021/04/30 08:30:28;;;;;;;111.30;37.47;;;9.10;99.90;;;;;;5086176;28;20447;-89
2021/04/30 08:32:57;;;;;;;115.60;49.47;;;9.20;99.90;;;;;;5071769;28;20489;-88
2021/04/30 08:35:23;;;;;;;120.67;37.80;;;9.20;99.90;;;;;;5081564;28;20439;-88
2021/04/30 08:37:50;;;;;;;124.70;37.27;;;9.30;99.90;;;;;;5080067;28;20958;-88
2021/04/30 08:40:16;;;;;;;119.10;42.07;;;9.50;99.90;;;;;;5079974;28;20808;-88
2021/04/30 08:42:43;;;;;;;112.13;36.23;;;9.50;99.90;;;;;;5080791;28;20470;-89
2021/04/30 08:45:15;;;;;;;116.83;43.00;;;9.60;99.90;;;;;;5081075;28;20470;-88
2021/04/30 08:47:45;;;;;;;118.77;38.07;;;9.50;99.90;;;;;;5081013;28;20435;-87
2021/04/30 08:50:13;;;;;;;113.00;36.30;;;9.40;99.90;;;;;;5082861;28;20442;-87
2021/04/30 08:52:40;;;;;;;115.95;41.70;;;9.40;99.90;;;;;;5076566;28;20474;-88
2021/04/30 08:55:09;;;;;;;120.27;38.20;;;9.70;99.90;;;;;;5079910;28;20522;-88
2021/04/30 08:57:37;;;;;;;109.00;37.07;;;9.70;99.90;;;;;;5084383;28;20937;-87
2021/04/30 09:00:07;;;;;;;110.80;38.47;;;9.90;99.90;;;;;;5078524;28;20467;-89
2021/04/30 09:02:38;;;;;;;106.47;41.93;;;10.00;99.90;;;;;;5079778;28;20455;-89
2021/04/30 09:05:07;;;;;;;112.47;40.47;;;9.80;99.90;;;;;;5078796;28;20485;-89
2021/04/30 09:07:40;;;;;;;120.03;48.57;;;9.90;99.90;;;;;;5079225;28;20866;-89
2021/04/30 09:10:09;;;;;;;116.60;37.93;;;9.40;99.90;;;;;;5078707;28;20431;-88
2021/04/30 09:12:36;;;;;;;109.47;40.50;;;9.50;99.90;;;;;;5079356;28;20478;-88
2021/04/30 09:15:05;;;;;;;116.37;45.93;;;9.60;99.90;;;;;;5081508;28;20482;-87
2021/04/30 09:17:31;;;;;;;111.20;38.00;;;9.60;99.90;;;;;;5079911;28;20458;-89
2021/04/30 09:20:02;;;;;;;118.37;44.20;;;9.50;99.90;;;;;;5089466;28;20457;-89
2021/04/30 09:22:30;;;;;;;112.17;43.37;;;9.70;99.90;;;;;;5083919;28;20993;-88
2021/04/30 09:24:58;;;;;;;111.67;42.63;;;9.90;99.90;;;;;;5082605;28;20459;-87
2021/04/30 09:27:36;;;;;;;108.27;41.60;;;10.00;99.90;;;;;;5081032;28;20443;-88
2021/04/30 09:30:22;;;;;;;113.20;43.57;;;10.20;99.90;;;;;;5087049;28;20439;-89
2021/04/30 09:33:07;;;;;;;118.03;52.43;;;10.40;99.90;;;;;;5066155;28;20555;-88
2021/04/30 09:35:36;;;;;;;121.50;50.53;;;10.20;99.90;;;;;;5076362;28;20451;-86
2021/04/30 09:38:17;;;;;;;122.63;60.67;;;10.40;99.90;;;;;;5079536;28;20451;-86
2021/04/30 09:40:44;;;;;;;125.80;58.70;;;10.60;99.90;;;;;;5081466;28;20466;-86
2021/04/30 09:43:12;;;;;;;122.10;51.73;;;10.50;99.90;;;;;;5085190;28;21090;-86
2021/04/30 09:45:39;;;;;;;120.47;49.80;;;10.60;99.90;;;;;;5081194;28;20451;-86
2021/04/30 09:48:11;;;;;;;123.17;50.83;;;10.50;99.90;;;;;;5079485;28;21291;-87
2021/04/30 09:50:41;;;;;;;117.80;48.67;;;10.80;99.90;;;;;;5077097;28;20448;-85
2021/04/30 09:53:10;;;;;;;121.33;56.57;;;10.80;99.90;;;;;;5071624;28;20553;-86
2021/04/30 09:55:41;;;;;;;118.67;54.93;;;11.00;99.90;;;;;;5075412;28;20451;-86
2021/04/30 09:58:16;;;;;;;124.13;53.27;;;11.10;99.90;;;;;;5078983;28;20450;-86
2021/04/30 10:00:42;;;;;;;123.97;56.17;;;11.00;99.90;;;;;;5065741;28;20536;-86
2021/04/30 10:03:16;;;;;;;127.50;59.43;;;11.40;99.90;;;;;;5072508;28;20505;-85
2021/04/30 10:06:13;;;;;;;120.13;57.63;;;11.40;99.90;;;;;;5079125;28;20833;-85
2021/04/30 10:08:41;;;;;;;126.97;65.93;;;11.20;99.90;;;;;;5072703;28;20447;-86
2021/04/30 10:11:28;;;;;;;123.30;69.27;;;11.30;99.90;;;;;;5079701;28;20478;-86
2021/04/30 10:13:54;;;;;;;117.93;54.30;;;11.40;99.90;;;;;;5071330;28;20486;-86
2021/04/30 10:16:21;;;;;;;122.50;65.97;;;11.60;99.90;;;;;;5085396;28;20453;-86
2021/04/30 10:18:47;;;;;;;126.03;57.07;;;11.70;99.90;;;;;;5079493;28;20463;-85
2021/04/30 10:21:17;;;;;;;522.53;477.47;;;11.60;99.90;;;;;;5073702;28;20455;-85
2021/04/30 10:23:48;;;;;;;1999.90;999.90;;;13.80;99.90;;;;;;5078268;28;20463;-85
2021/04/30 10:26:16;;;;;;;72.87;49.13;;;14.60;99.90;;;;;;5078661;28;20526;-85
2021/04/30 10:28:49;;;;;;;495.63;465.03;;;15.10;99.90;;;;;;5078212;28;20455;-86
2021/04/30 10:31:20;;;;;;;540.43;505.33;;;14.40;99.90;;;;;;5079731;28;20804;-85
2021/04/30 10:33:55;;;;;;;163.93;141.93;;;14.10;99.90;;;;;;5071787;28;20556;-86
2021/04/30 10:36:29;;;;;;;398.67;369.60;;;13.90;99.90;;;;;;5072609;28;20522;-87
2021/04/30 10:38:56;;;;;;;58.37;28.67;;;14.00;99.90;;;;;;5071795;28;20802;-86
2021/04/30 10:41:31;;;;;;;77.47;66.53;;;14.10;99.90;;;;;;5064767;28;20451;-86
2021/04/30 10:44:12;;;;;;;79.80;71.73;;;14.10;99.90;;;;;;5077706;28;20458;-86
2021/04/30 10:46:38;;;;;;;50.20;28.73;;;13.70;99.90;;;;;;5080758;28;20521;-86
2021/04/30 10:49:17;;;;;;;1999.90;999.90;;;13.50;99.90;;;;;;5091915;28;20458;-87
2021/04/30 10:52:18;;;;;;;1999.90;999.90;;;12.50;99.90;;;;;;5093758;28;20439;-87
2021/04/30 10:54:48;;;;;;;480.70;447.37;;;12.40;99.90;;;;;;5070525;28;20494;-85
2021/04/30 10:57:17;;;;;;;717.77;669.90;;;13.20;99.90;;;;;;5081263;28;20439;-84
2021/04/30 10:59:45;;;;;;;1999.90;999.90;;;13.30;99.90;;;;;;5078676;28;20470;-86
2021/04/30 11:02:13;;;;;;;1999.90;999.90;;;12.80;99.90;;;;;;5072799;28;20471;-84
2021/04/30 11:04:39;;;;;;;1999.90;999.90;;;12.30;99.90;;;;;;5072492;28;20478;-85
2021/04/30 11:07:09;;;;;;;1999.90;999.90;;;12.50;99.90;;;;;;5076390;28;20478;-86
2021/04/30 11:09:37;;;;;;;1999.90;999.90;;;12.00;99.90;;;;;;5056736;28;20447;-84
2021/04/30 11:12:23;;;;;;;1999.90;999.90;;;12.00;99.90;;;;;;5075208;28;20451;-83
2021/04/30 11:15:02;;;;;;;1999.90;999.90;;;12.10;99.90;;;;;;5072918;28;20519;-85
2021/04/30 11:17:49;;;;;;;1999.90;999.90;;;12.40;99.90;;;;;;5076355;28;20443;-83
2021/04/30 11:20:20;;;;;;;1999.90;999.90;;;12.50;99.90;;;;;;5081657;28;20538;-82
2021/04/30 11:23:12;;;;;;;1999.90;999.90;;;12.60;99.90;;;;;;5080432;28;20623;-85
2021/04/30 11:26:04;;;;;;;1999.90;999.90;;;12.40;99.90;;;;;;5076518;28;20521;-83
2021/04/30 11:29:11;;;;;;;1999.90;999.90;;;12.40;99.90;;;;;;5079397;28;20508;-87
2021/04/30 11:31:39;;;;;;;1999.90;999.90;;;11.90;99.90;;;;;;5087942;28;20443;-87
2021/04/30 11:34:18;;;;;;;1999.90;999.90;;;12.30;99.90;;;;;;5097270;28;20478;-86
2021/04/30 11:36:48;;;;;;;1999.90;999.90;;;12.60;99.90;;;;;;5083631;28;20443;-86
2021/04/30 11:39:17;;;;;;;1999.90;999.90;;;12.80;99.90;;;;;;5076332;28;20451;-85
2021/04/30 11:41:44;;;;;;;1999.90;999.90;;;13.40;99.90;;;;;;5076702;28;20830;-85
2021/04/30 11:44:11;;;;;;;308.10;285.30;;;13.50;99.90;;;;;;5076646;28;20838;-85
2021/04/30 11:46:38;;;;;;;175.90;160.10;;;14.40;99.90;;;;;;5076399;28;20527;-84
2021/04/30 11:49:05;;;;;;;91.70;82.07;;;14.60;99.90;;;;;;5065922;28;20878;-86
2021/04/30 11:51:44;;;;;;;143.97;130.80;;;14.30;99.90;;;;;;5070830;28;20518;-86
2021/04/30 11:54:10;;;;;;;42.83;26.20;;;14.30;99.90;;;;;;5077490;28;20486;-83
2021/04/30 11:56:37;;;;;;;560.50;499.57;;;14.80;99.90;;;;;;5076669;28;20483;-86
2021/04/30 11:59:04;;;;;;;68.20;60.80;;;14.80;99.90;;;;;;5076923;28;20478;-85
2021/04/30 12:01:30;;;;;;;45.30;33.80;;;14.50;99.90;;;;;;5074576;28;20483;-85
2021/04/30 12:03:58;;;;;;;36.40;27.33;;;14.60;99.90;;;;;;5078213;28;20985;-85
2021/04/30 12:06:27;;;;;;;39.80;25.57;;;15.30;99.90;;;;;;5075384;28;20447;-85
2021/04/30 12:08:55;;;;;;;44.90;29.33;;;15.90;99.90;;;;;;5078901;28;20474;-85
2021/04/30 12:11:29;;;;;;;38.33;28.00;;;16.20;99.90;;;;;;5076849;28;20549;-85
2021/04/30 12:14:02;;;;;;;39.93;25.27;;;16.40;99.90;;;;;;5075505;28;20482;-86
2021/04/30 12:16:29;;;;;;;35.67;22.83;;;16.40;99.90;;;;;;5075136;28;20451;-85
2021/04/30 12:18:56;;;;;;;33.30;21.97;;;17.00;99.90;;;;;;5074217;28;20530;-85
2021/04/30 12:21:27;;;;;;;36.87;25.00;;;17.40;99.90;;;;;;5076004;28;20439;-86
2021/04/30 12:23:54;;;;;;;40.43;26.07;;;17.30;99.90;;;;;;5073591;28;20554;-85
2021/04/30 12:26:25;;;;;;;37.40;26.00;;;16.30;99.90;;;;;;5055983;28;20497;-86
2021/04/30 12:28:54;;;;;;;39.10;25.73;;;16.00;99.90;;;;;;5071681;28;20451;-87
2021/04/30 12:31:23;;;;;;;33.00;24.80;;;15.50;99.90;;;;;;5074983;28;20451;-87
2021/04/30 12:33:50;;;;;;;32.03;22.87;;;14.70;99.90;;;;;;5074520;28;20482;-86
2021/04/30 12:36:21;;;;;;;35.37;25.00;;;14.80;99.90;;;;;;5074985;28;20481;-85